LiveATC.Net - Listen to live air traffic control over the Internet! Contact LiveATC.net for advertising information


ICAO: ULLI  IATA: LED   Airport: Pulkovo Airport
City: Saint Petersburg
Country: Russia   Continent: Europe
ULLI METAR Weather: ULLI 221330Z 19002MPS 9999 BKN036 OVC066 M03/M04 Q0992 88510350 NOSIG
ULLI Flight Activity (FlightAware)
ULLI Gnd/Twr/App
Feed Status: DOWN
Last heard on: 2014-12-22 12:04:04 (0 days 2 hours 12 minutes ago)
ULLI Gnd/Twr/App Audio Archives
FacilityFrequency
Circle120.300
St. Petersburg Approach119.300
St. Petersburg Approach125.900
St. Petersburg Control135.600
St. Petersburg Tower118.100
St. Petersburg Tower118.700
St. Petersburg Transit131.800


NOTICE

Unauthorized use prohibited. See LiveATC.net Terms of Service


Find LiveATC Audio Streams


Airport/ARTCC Code

Frequency
(e.g., 124.400, 128.75)
Site-wide search

Browse LiveATC Feeds
LiveATC Coverage Map
Top 50 LiveATC Feeds
Bad Weather Areas

LiveATC FAQ
Offer a LiveATC Feed
Contact LiveATC.net
Press Inquiries

LiveATC on iPhone
LiveATC on Android

LiveATC Mobile
(Mobile browser)

ATC Audio Archives
Interesting Recordings

LiveATC Forums


Home Page
About LiveATC.net
Make a Donation
LiveATC Bookstore

Terms of Use
Privacy Policy

ATC/Radar Sites
U.S. ARTCC Freqs
Canadian Air Freqs

AIRMETs/SIGMETs

FAA Airport Status
Nat'l Airspace Status
Arrival Demand Charts


Server Software By:
Icecast.org
Liquidsoap

Please make a donation to help us keep growing!